Time;durP1;ratioP1;P1;durP2;ratioP2;P2;SDS_P1;SDS_P2;PMS_P1;PMS_P2;Temp;Humidity;BMP_temperature;BMP_pressure;BME280_temperature;BME280_humidity;BME280_pressure;Samples;Min_cycle;Max_cycle;Signal;HPM_P1;HPM_P2
2023/10/10 00:00:04;;;;;;;5.00;1.60;;;;;;;15.36;78.83;99972.78;335705;28;18186;-66
2023/10/10 00:00:38;;;;;;;5.40;1.63;;;;;;;15.36;78.56;99973.63;336858;28;4651;-67
2023/10/10 00:00:55;;;;;;;5.03;1.60;;;;;;;15.36;78.59;99978.03;334660;28;17474;-66
2023/10/10 00:01:07;;;;;;;5.88;1.77;;;;;;;15.34;78.84;99969.38;335204;28;17488;-65
2023/10/10 00:01:21;;;;;;;4.93;1.60;;;;;;;15.32;78.93;99971.22;338023;28;4667;-66
2023/10/10 00:01:38;;;;;;;4.23;1.70;;;;;;;15.30;79.28;99968.69;334772;28;18386;-65
2023/10/10 00:01:52;;;;;;;2.70;1.80;;;;;;;15.28;79.55;99967.91;332296;28;17592;-65
2023/10/10 00:02:06;;;;;;;3.97;2.00;;;;;;;15.28;79.46;99975.75;334429;28;18296;-67
2023/10/10 00:02:18;;;;;;;4.13;1.88;;;;;;;15.26;79.57;99972.38;334475;28;18101;-68
2023/10/10 00:02:31;;;;;;;3.65;1.55;;;;;;;15.26;79.41;99972.38;332337;28;4680;-66
2023/10/10 00:02:44;;;;;;;3.45;1.50;;;;;;;15.27;79.32;99973.19;333877;28;17801;-66
2023/10/10 00:02:56;;;;;;;2.92;1.65;;;;;;;15.25;79.32;99970.69;337950;28;4537;-66
2023/10/10 00:03:08;;;;;;;3.40;1.85;;;;;;;15.25;79.29;99969.81;334432;28;5327;-66
2023/10/10 00:03:22;;;;;;;4.25;2.05;;;;;;;15.21;79.47;99976.09;337454;28;4978;-66
2023/10/10 00:03:39;;;;;;;5.45;1.85;;;;;;;15.20;79.37;99972.66;336154;28;17739;-66
2023/10/10 00:03:53;;;;;;;4.22;1.55;;;;;;;15.19;79.59;99970.94;331445;28;17632;-66
2023/10/10 00:04:05;;;;;;;2.97;1.52;;;;;;;15.20;79.66;99971.81;336005;28;18147;-66
2023/10/10 00:04:19;;;;;;;4.93;2.00;;;;;;;15.21;79.70;99966.47;338608;28;4700;-65
2023/10/10 00:04:33;;;;;;;5.13;2.05;;;;;;;15.21;79.58;99976.09;335940;28;14779;-66
2023/10/10 00:04:47;;;;;;;3.70;1.63;;;;;;;15.23;79.56;99974.25;335982;28;18093;-66
2023/10/10 00:05:03;;;;;;;3.30;1.65;;;;;;;15.22;79.40;99969.97;334817;28;18057;-66
2023/10/10 00:05:18;;;;;;;6.28;1.83;;;;;;;15.22;79.62;99975.22;335885;28;17658;-66
2023/10/10 00:05:36;;;;;;;6.40;1.85;;;;;;;15.22;79.42;99975.22;333655;28;18006;-67
2023/10/10 00:05:48;;;;;;;4.68;2.00;;;;;;;15.21;79.45;99970.88;334262;28;17671;-65
2023/10/10 00:06:08;;;;;;;4.40;1.98;;;;;;;15.22;79.45;99972.59;333890;28;18159;-66
2023/10/10 00:06:22;;;;;;;3.80;1.60;;;;;;;15.22;79.28;99975.22;333290;28;18503;-67
2023/10/10 00:06:38;;;;;;;5.75;1.80;;;;;;;15.23;79.18;99971.66;334392;28;4831;-68
2023/10/10 00:06:51;;;;;;;5.18;2.05;;;;;;;15.18;79.53;99980.56;334492;28;18679;-68
2023/10/10 00:07:08;;;;;;;3.63;1.85;;;;;;;15.18;79.87;99970.09;333234;28;5432;-66
2023/10/10 00:07:24;;;;;;;4.72;1.70;;;;;;;15.16;79.80;99971.94;333966;28;17654;-67
2023/10/10 00:07:36;;;;;;;5.28;1.85;;;;;;;15.17;79.82;99972.78;335160;28;17558;-67
2023/10/10 00:07:48;;;;;;;4.90;1.88;;;;;;;15.14;79.91;99971.16;337892;28;4651;-66
2023/10/10 00:08:01;;;;;;;7.50;1.70;;;;;;;15.13;80.34;99977.34;332915;28;13701;-66
2023/10/10 00:08:14;;;;;;;7.45;1.65;;;;;;;15.10;80.59;99972.22;337806;28;5220;-66
2023/10/10 00:08:40;;;;;;;6.88;1.90;;;;;;;15.10;80.45;99972.22;334937;28;17966;-66
2023/10/10 00:08:52;;;;;;;7.18;2.00;;;;;;;15.12;80.41;99970.38;336165;28;17974;-66
2023/10/10 00:09:11;;;;;;;6.82;2.08;;;;;;;15.11;80.35;99978.31;337874;28;5179;-65
2023/10/10 00:09:26;;;;;;;4.35;1.83;;;;;;;15.09;80.72;99973.16;334890;28;17625;-66
2023/10/10 00:09:39;;;;;;;4.05;1.77;;;;;;;15.04;81.27;99967.28;335040;28;18990;-66
2023/10/10 00:09:51;;;;;;;3.22;1.50;;;;;;;15.05;80.95;99971.59;335013;28;18133;-66
2023/10/10 00:10:04;;;;;;;3.35;1.63;;;;;;;15.06;80.77;99970.66;332437;28;4790;-66
2023/10/10 00:10:16;;;;;;;4.05;1.55;;;;;;;15.06;80.74;99969.81;335180;28;4870;-68
2023/10/10 00:10:30;;;;;;;4.25;1.50;;;;;;;15.07;80.74;99971.50;337624;28;4675;-67
2023/10/10 00:10:49;;;;;;;4.38;1.65;;;;;;;15.06;80.78;99969.81;335198;28;18534;-66
2023/10/10 00:11:09;;;;;;;5.43;1.70;;;;;;;15.06;80.58;99970.66;336892;28;17785;-66
2023/10/10 00:11:21;;;;;;;6.03;1.65;;;;;;;15.05;80.76;99974.22;337001;28;14606;-66
2023/10/10 00:11:35;;;;;;;7.47;1.95;;;;;;;15.04;80.72;99977.75;330366;28;18284;-67
2023/10/10 00:11:47;;;;;;;7.95;2.13;;;;;;;15.05;80.61;99974.22;336078;28;11862;-67
2023/10/10 00:11:59;;;;;;;6.05;2.15;;;;;;;15.05;80.55;99968.97;338860;28;4792;-66
2023/10/10 00:12:19;;;;;;;4.05;2.00;;;;;;;15.03;80.62;99973.44;338688;28;4662;-66
2023/10/10 00:12:35;;;;;;;5.30;2.10;;;;;;;15.02;80.65;99971.72;335154;28;17408;-67
2023/10/10 00:12:48;;;;;;;6.43;2.20;;;;;;;15.01;80.56;99972.66;337531;28;18932;-66
2023/10/10 00:13:01;;;;;;;5.00;1.88;;;;;;;14.97;80.46;99971.09;335491;28;18081;-66
2023/10/10 00:13:13;;;;;;;5.00;1.95;;;;;;;14.94;80.23;99969.47;337598;28;4727;-66
2023/10/10 00:13:25;;;;;;;4.60;1.73;;;;;;;14.96;80.29;99969.38;335617;28;11769;-66
2023/10/10 00:13:42;;;;;;;5.03;1.90;;;;;;;14.94;80.50;99968.63;337623;28;5507;-66
2023/10/10 00:14:05;;;;;;;4.68;1.70;;;;;;;14.93;80.47;99970.38;334840;28;17731;-66
2023/10/10 00:14:19;;;;;;;3.40;1.67;;;;;;;14.92;80.21;99968.69;334992;28;17759;-66
2023/10/10 00:14:32;;;;;;;4.03;1.95;;;;;;;14.92;80.31;99973.06;333873;28;17732;-66
2023/10/10 00:14:50;;;;;;;5.53;2.20;;;;;;;14.91;80.21;99972.22;335781;28;4775;-68
2023/10/10 00:15:20;;;;;;;4.90;1.90;;;;;;;14.89;80.26;99973.19;334098;28;16851;-65
2023/10/10 00:15:38;;;;;;;4.53;1.73;;;;;;;14.90;80.10;99973.13;334705;28;18415;-65
2023/10/10 00:15:51;;;;;;;4.28;1.88;;;;;;;14.93;80.15;99977.38;334917;28;17914;-67
2023/10/10 00:16:05;;;;;;;4.75;1.90;;;;;;;14.92;80.12;99973.06;337808;28;6069;-67
2023/10/10 00:16:19;;;;;;;4.00;1.80;;;;;;;14.93;80.15;99972.13;334805;28;18135;-66
2023/10/10 00:16:35;;;;;;;4.03;1.80;;;;;;;14.93;80.00;99969.50;335028;28;18281;-66
2023/10/10 00:16:48;;;;;;;4.65;1.88;;;;;;;14.91;80.04;99977.47;332393;28;17470;-67
2023/10/10 00:17:00;;;;;;;5.63;2.00;;;;;;;14.91;80.10;99973.97;334962;28;11912;-68
2023/10/10 00:17:14;;;;;;;7.13;1.77;;;;;;;14.90;80.16;99978.38;338867;28;4687;-65
2023/10/10 00:17:34;;;;;;;9.07;2.00;;;;;;;14.89;80.35;99968.84;335832;28;18168;-68
2023/10/10 00:17:46;;;;;;;8.13;1.90;;;;;;;14.89;80.37;99975.81;333083;28;17494;-66
2023/10/10 00:18:05;;;;;;;6.40;1.90;;;;;;;14.90;80.34;99974.91;338839;28;5684;-66
2023/10/10 00:18:19;;;;;;;4.18;1.85;;;;;;;14.89;80.22;99973.19;334605;28;17644;-66
2023/10/10 00:18:32;;;;;;;4.68;1.90;;;;;;;14.89;80.37;99975.81;334835;28;12033;-68
2023/10/10 00:18:44;;;;;;;6.78;2.10;;;;;;;14.89;80.61;99978.44;337418;28;4656;-66
2023/10/10 00:18:58;;;;;;;6.72;2.05;;;;;;;14.90;80.43;99980.16;336688;28;18310;-66
2023/10/10 00:19:53;;;;;;;4.45;1.70;;;;;;;14.91;80.05;99981.81;333834;28;17695;-67
2023/10/10 00:20:21;;;;;;;5.65;1.50;;;;;;;14.90;80.13;99974.91;334779;28;17122;-66
2023/10/10 00:20:41;;;;;;;4.68;1.60;;;;;;;14.89;80.52;99971.44;333787;28;17486;-66
2023/10/10 00:21:28;;;;;;;6.82;2.03;;;;;;;14.91;80.72;99976.59;336066;28;14364;-67
2023/10/10 00:21:31;;;;;;;3.15;1.50;;;;;;;14.88;80.78;99977.59;333560;28;16620;-66
2023/10/10 00:21:44;;;;;;;4.20;1.77;;;;;;;14.89;80.57;99976.69;335326;28;4754;-68
2023/10/10 00:21:57;;;;;;;4.93;2.00;;;;;;;14.90;80.28;99974.91;336042;28;4702;-66
2023/10/10 00:22:10;;;;;;;4.28;1.88;;;;;;;14.90;80.42;99975.75;334431;28;18343;-66
2023/10/10 00:22:34;;;;;;;4.07;1.70;;;;;;;14.89;80.19;99974.06;337256;28;4735;-67
2023/10/10 00:22:48;;;;;;;4.72;2.17;;;;;;;14.88;80.21;99974.97;334816;28;17365;-66
2023/10/10 00:23:04;;;;;;;2.45;1.50;;;;;;;14.87;80.49;99972.41;335056;28;17693;-66
2023/10/10 00:23:17;;;;;;;4.03;1.63;;;;;;;14.86;80.33;99973.34;335140;28;18165;-66
2023/10/10 00:23:30;;;;;;;6.90;1.88;;;;;;;14.86;80.69;99975.97;334378;28;18299;-66
2023/10/10 00:23:47;;;;;;;9.00;2.22;;;;;;;14.84;80.56;99980.41;337133;28;4650;-66
2023/10/10 00:23:59;;;;;;;6.55;2.10;;;;;;;14.84;80.50;99969.94;337044;28;17415;-66
2023/10/10 00:24:12;;;;;;;4.63;1.75;;;;;;;14.83;80.36;99973.47;335001;28;18429;-67
2023/10/10 00:24:33;;;;;;;4.30;1.75;;;;;;;14.83;80.54;99974.34;334932;28;5405;-66
2023/10/10 00:24:48;;;;;;;4.97;1.98;;;;;;;14.83;80.63;99970.84;334163;28;18783;-67
2023/10/10 00:25:04;;;;;;;5.38;2.00;;;;;;;14.85;80.41;99976.88;336368;28;19188;-66
2023/10/10 00:25:18;;;;;;;3.67;1.70;;;;;;;14.85;80.42;99969.88;333807;28;19117;-66
2023/10/10 00:25:30;;;;;;;2.80;1.58;;;;;;;14.84;80.37;99970.78;329455;28;17969;-66
2023/10/10 00:25:44;;;;;;;4.50;1.80;;;;;;;14.85;80.35;99971.63;337160;28;5822;-66
2023/10/10 00:25:56;;;;;;;4.82;1.80;;;;;;;14.84;80.41;99976.03;334660;28;12011;-66
2023/10/10 00:26:12;;;;;;;3.05;1.50;;;;;;;14.80;80.49;99977.09;337597;28;4782;-66
2023/10/10 00:26:26;;;;;;;6.03;1.75;;;;;;;14.80;80.46;99971.84;335060;28;17674;-66
2023/10/10 00:26:43;;;;;;;9.13;2.28;;;;;;;14.80;80.62;99973.63;335376;28;18211;-66
2023/10/10 00:26:58;;;;;;;7.20;2.53;;;;;;;14.75;80.66;99966.84;333792;28;18927;-68
2023/10/10 00:27:13;;;;;;;4.75;2.30;;;;;;;14.76;80.70;99968.50;335318;28;12675;-65
2023/10/10 00:27:25;;;;;;;5.22;2.58;;;;;;;14.75;80.86;99966.84;335327;28;11754;-67
2023/10/10 00:27:39;;;;;;;5.57;2.53;;;;;;;14.72;80.82;99977.41;337295;28;4745;-66
2023/10/10 00:27:58;;;;;;;6.07;2.53;;;;;;;14.72;80.94;99972.19;335083;28;17949;-66
2023/10/10 00:28:21;;;;;;;7.55;2.53;;;;;;;14.70;81.13;99971.41;336090;28;18677;-66
2023/10/10 00:28:34;;;;;;;7.10;2.33;;;;;;;14.70;81.05;99974.03;334418;28;17465;-66
2023/10/10 00:28:53;;;;;;;5.53;2.60;;;;;;;14.70;81.27;99971.41;334686;28;11411;-68
2023/10/10 00:29:08;;;;;;;6.97;2.65;;;;;;;14.71;80.97;99972.28;335124;28;17821;-65
2023/10/10 00:29:26;;;;;;;6.95;2.20;;;;;;;14.73;81.39;99968.66;337239;28;17942;-65
2023/10/10 00:29:42;;;;;;;4.45;1.98;;;;;;;14.70;81.33;99967.94;334932;28;17980;-66
2023/10/10 00:29:54;;;;;;;5.60;1.92;;;;;;;14.72;81.28;99971.34;335325;28;17779;-66
2023/10/10 00:30:07;;;;;;;14.80;2.33;;;;;;;14.69;81.39;99967.09;334915;28;18107;-66
2023/10/10 00:30:22;;;;;;;12.68;2.50;;;;;;;14.66;81.49;99972.47;337514;28;4698;-65
2023/10/10 00:30:42;;;;;;;4.28;2.22;;;;;;;14.65;81.48;99960.31;334037;28;17832;-67
2023/10/10 00:30:54;;;;;;;4.88;2.17;;;;;;;14.64;81.46;99968.22;336802;28;17008;-67
2023/10/10 00:31:13;;;;;;;5.75;2.33;;;;;;;14.66;81.15;99972.47;338327;28;12527;-67
2023/10/10 00:31:28;;;;;;;4.10;2.20;;;;;;;14.63;81.35;99966.50;329443;28;18399;-66
2023/10/10 00:31:43;;;;;;;3.85;1.88;;;;;;;14.61;81.87;99969.22;335061;28;17870;-66
2023/10/10 00:31:55;;;;;;;6.72;2.13;;;;;;;14.60;81.74;99970.13;335171;28;18222;-66
2023/10/10 00:32:16;;;;;;;7.13;2.33;;;;;;;14.61;81.65;99963.97;335029;28;17977;-66
2023/10/10 00:32:35;;;;;;;4.63;2.03;;;;;;;14.59;81.80;99968.44;334547;28;18040;-67
2023/10/10 00:32:47;;;;;;;4.47;2.17;;;;;;;14.59;81.69;99968.44;332879;28;17753;-66
2023/10/10 00:33:03;;;;;;;4.88;2.53;;;;;;;14.58;81.69;99969.34;339158;28;5572;-66
2023/10/10 00:33:16;;;;;;;7.30;2.75;;;;;;;14.58;81.77;99970.19;334849;28;17864;-67
2023/10/10 00:33:31;;;;;;;6.18;2.30;;;;;;;14.58;81.80;99972.78;334744;28;18289;-66
2023/10/10 00:33:45;;;;;;;3.78;1.92;;;;;;;14.59;81.89;99965.81;334581;28;18893;-66
2023/10/10 00:33:57;;;;;;;4.40;2.10;;;;;;;14.55;82.39;99972.06;337875;28;5435;-65
2023/10/10 00:34:09;;;;;;;4.47;2.00;;;;;;;14.53;82.79;99966.06;334607;28;18329;-66
2023/10/10 00:34:33;;;;;;;4.30;2.15;;;;;;;14.54;82.57;99962.50;332786;28;4496;-66
2023/10/10 00:34:48;;;;;;;4.80;2.47;;;;;;;14.54;81.99;99962.50;335144;28;17536;-66
2023/10/10 00:35:06;;;;;;;4.07;2.30;;;;;;;14.56;81.96;99971.19;335658;28;18241;-66
2023/10/10 00:35:18;;;;;;;6.00;2.20;;;;;;;14.57;81.67;99972.88;335256;28;17668;-68
2023/10/10 00:35:31;;;;;;;6.47;2.00;;;;;;;14.59;81.73;99968.44;336937;28;5465;-67
2023/10/10 00:35:44;;;;;;;4.50;1.90;;;;;;;14.58;81.66;99967.56;337399;28;4629;-66
2023/10/10 00:35:59;;;;;;;6.53;2.15;;;;;;;14.58;81.74;99964.94;333294;28;17890;-66
2023/10/10 00:36:21;;;;;;;7.45;2.08;;;;;;;14.58;81.63;99966.72;334713;28;18999;-65
2023/10/10 00:36:35;;;;;;;4.40;1.77;;;;;;;14.60;81.43;99970.13;335235;28;17575;-66
2023/10/10 00:36:47;;;;;;;5.85;2.22;;;;;;;14.60;81.52;99966.66;332426;28;18141;-66
2023/10/10 00:37:07;;;;;;;6.28;2.50;;;;;;;14.58;81.82;99962.34;335015;28;17978;-68
2023/10/10 00:37:25;;;;;;;5.20;1.83;;;;;;;14.56;81.56;99960.72;334738;28;17772;-66
2023/10/10 00:37:37;;;;;;;4.38;1.60;;;;;;;14.56;81.53;99968.56;334133;28;17780;-66
2023/10/10 00:37:50;;;;;;;4.10;1.70;;;;;;;14.55;81.65;99969.47;337294;28;4661;-66
2023/10/10 00:38:06;;;;;;;5.30;1.90;;;;;;;14.54;81.65;99968.59;334978;28;18133;-66
2023/10/10 00:38:26;;;;;;;4.85;2.10;;;;;;;14.52;81.42;99959.13;335190;28;16327;-66
2023/10/10 00:38:38;;;;;;;5.30;2.20;;;;;;;14.51;81.44;99962.66;333758;28;17675;-67
2023/10/10 00:38:57;;;;;;;6.07;2.10;;;;;;;14.52;81.35;99970.41;334394;28;11822;-68
2023/10/10 00:39:23;;;;;;;5.90;2.17;;;;;;;14.53;81.07;99966.06;334283;28;17696;-66
2023/10/10 00:39:36;;;;;;;4.93;1.50;;;;;;;14.52;81.18;99962.56;334249;28;18479;-68
2023/10/10 00:39:55;;;;;;;4.07;1.63;;;;;;;14.51;81.28;99962.66;337145;28;4683;-66
2023/10/10 00:40:11;;;;;;;3.28;1.80;;;;;;;14.50;81.45;99966.19;335018;28;17800;-65
2023/10/10 00:40:30;;;;;;;4.40;1.65;;;;;;;14.49;81.38;99969.72;334499;28;18066;-66
2023/10/10 00:40:46;;;;;;;6.43;2.05;;;;;;;14.47;81.34;99961.09;333948;28;17309;-67
2023/10/10 00:40:58;;;;;;;6.00;2.15;;;;;;;14.47;81.33;99971.56;333766;28;17626;-66
2023/10/10 00:41:15;;;;;;;5.43;1.90;;;;;;;14.49;81.20;99974.97;336388;28;5389;-67
2023/10/10 00:41:27;;;;;;;4.30;1.30;;;;;;;14.51;81.04;99973.13;334329;28;17694;-65
2023/10/10 00:41:54;;;;;;;3.15;1.40;;;;;;;14.52;80.85;99972.19;337802;28;4489;-66
2023/10/10 00:42:13;;;;;;;4.43;1.70;;;;;;;14.52;80.88;99964.34;334076;28;17502;-67
2023/10/10 00:42:41;;;;;;;5.50;1.80;;;;;;;14.51;80.98;99967.91;334313;28;17374;-66
2023/10/10 00:42:53;;;;;;;5.75;2.17;;;;;;;14.46;81.23;99970.69;335168;28;17598;-65
2023/10/10 00:43:22;;;;;;;5.95;2.30;;;;;;;14.46;81.19;99975.06;336272;28;5178;-66
2023/10/10 00:43:34;;;;;;;5.05;1.90;;;;;;;14.45;81.27;99973.41;334094;28;17197;-66
2023/10/10 00:43:46;;;;;;;5.82;2.10;;;;;;;14.44;81.27;99976.91;337829;28;5207;-66
2023/10/10 00:43:58;;;;;;;6.28;2.13;;;;;;;14.45;81.38;99976.00;334872;28;4762;-66
2023/10/10 00:44:16;;;;;;;4.72;1.88;;;;;;;14.44;81.53;99972.53;337256;28;5253;-66
2023/10/10 00:44:28;;;;;;;3.95;1.88;;;;;;;14.43;81.60;99969.97;334674;28;17869;-66
2023/10/10 00:44:40;;;;;;;6.40;1.75;;;;;;;14.43;81.65;99969.97;337697;28;4673;-66
2023/10/10 00:44:53;;;;;;;7.32;1.70;;;;;;;14.43;81.59;99970.84;338295;28;5616;-67
2023/10/10 00:45:09;;;;;;;7.28;2.10;;;;;;;14.44;81.48;99979.53;335526;28;19396;-66
2023/10/10 00:45:23;;;;;;;6.72;1.88;;;;;;;14.42;81.42;99978.75;334330;28;17371;-67
2023/10/10 00:45:36;;;;;;;5.43;1.55;;;;;;;14.40;81.40;99981.41;332389;28;18255;-66
2023/10/10 00:45:57;;;;;;;3.88;1.67;;;;;;;14.41;81.50;99977.03;336613;28;6876;-66
2023/10/10 00:46:11;;;;;;;3.28;1.58;;;;;;;14.41;81.62;99983.13;334337;28;17442;-68
2023/10/10 00:46:26;;;;;;;8.60;1.90;;;;;;;14.36;82.30;99979.84;336774;28;5424;-65
2023/10/10 00:46:39;;;;;;;9.00;2.00;;;;;;;14.35;82.30;99979.00;334344;28;18711;-67
2023/10/10 00:46:56;;;;;;;3.30;1.75;;;;;;;14.34;82.10;99982.53;334904;28;18032;-66
2023/10/10 00:47:13;;;;;;;2.53;1.30;;;;;;;14.35;81.86;99979.00;334370;28;18022;-67
2023/10/10 00:47:25;;;;;;;2.50;1.25;;;;;;;14.37;81.82;99977.19;333504;28;17745;-65
2023/10/10 00:47:43;;;;;;;3.72;1.35;;;;;;;14.39;81.60;99983.19;336099;28;4669;-67
2023/10/10 00:47:56;;;;;;;4.07;1.63;;;;;;;14.39;81.62;99980.56;332821;28;18026;-66
2023/10/10 00:48:09;;;;;;;3.85;1.98;;;;;;;14.38;82.00;99978.88;331262;28;4830;-67
2023/10/10 00:48:23;;;;;;;4.13;2.30;;;;;;;14.38;81.79;99973.63;333075;28;18394;-66
2023/10/10 00:48:38;;;;;;;4.47;2.55;;;;;;;14.39;81.92;99979.72;335581;28;5460;-67
2023/10/10 00:48:59;;;;;;;6.72;2.00;;;;;;;14.37;81.91;99974.56;333767;28;17118;-68
2023/10/10 00:49:14;;;;;;;4.55;1.50;;;;;;;14.37;82.00;99977.19;333110;28;17404;-65
2023/10/10 00:49:31;;;;;;;6.15;1.42;;;;;;;14.37;81.93;99982.41;333592;28;18073;-67
2023/10/10 00:49:45;;;;;;;9.00;1.50;;;;;;;14.36;82.10;99980.69;329196;28;17963;-67
2023/10/10 00:49:59;;;;;;;5.97;1.80;;;;;;;14.33;82.60;99980.84;335171;28;5248;-67
2023/10/10 00:50:20;;;;;;;4.30;2.13;;;;;;;14.32;82.83;99984.34;337331;28;4691;-67
2023/10/10 00:50:34;;;;;;;4.38;1.80;;;;;;;14.31;82.40;99982.66;334574;28;17417;-66
2023/10/10 00:50:47;;;;;;;3.60;1.70;;;;;;;14.33;82.15;99980.00;334390;28;11146;-66
2023/10/10 00:51:11;;;;;;;3.05;1.50;;;;;;;14.33;81.91;99980.00;337206;28;5210;-65
2023/10/10 00:51:23;;;;;;;3.53;1.83;;;;;;;14.31;82.20;99985.28;334324;28;17262;-65
2023/10/10 00:51:35;;;;;;;5.03;1.98;;;;;;;14.31;82.15;99971.38;337680;28;5174;-65
2023/10/10 00:51:47;;;;;;;5.15;1.77;;;;;;;14.32;82.16;99983.50;337472;28;4672;-66
2023/10/10 00:52:02;;;;;;;11.50;2.00;;;;;;;14.31;82.45;99981.84;332532;28;18216;-66
2023/10/10 00:52:17;;;;;;;13.15;2.20;;;;;;;14.29;82.79;99984.50;333822;28;17924;-66
2023/10/10 00:52:30;;;;;;;8.32;2.30;;;;;;;14.27;82.73;99975.88;334738;28;19307;-67
2023/10/10 00:52:52;;;;;;;5.00;2.50;;;;;;;14.25;83.03;99976.88;337605;28;5726;-65
2023/10/10 00:53:11;;;;;;;7.10;2.28;;;;;;;14.21;83.76;99980.53;334667;28;17885;-67
2023/10/10 00:53:23;;;;;;;5.43;1.77;;;;;;;14.22;83.40;99980.44;334641;28;17470;-65
2023/10/10 00:53:39;;;;;;;7.50;1.95;;;;;;;14.21;83.22;99977.91;336814;28;4581;-65
2023/10/10 00:54:25;;;;;;;8.20;2.20;;;;;;;14.21;83.43;99981.38;330063;28;17135;-67
2023/10/10 00:54:43;;;;;;;6.07;1.80;;;;;;;14.26;82.81;99981.16;330016;28;17929;-65
2023/10/10 00:54:55;;;;;;;4.05;1.77;;;;;;;14.27;82.45;99981.09;328165;28;17918;-65
2023/10/10 00:55:09;;;;;;;3.88;1.80;;;;;;;14.25;82.59;99977.69;335425;28;6052;-66
2023/10/10 00:55:24;;;;;;;3.47;1.80;;;;;;;14.27;83.00;99985.50;334441;28;15850;-67
2023/10/10 00:55:39;;;;;;;4.22;1.75;;;;;;;14.28;82.81;99982.78;333076;28;18113;-67
2023/10/10 00:55:57;;;;;;;5.20;1.80;;;;;;;14.28;82.87;99982.78;333861;28;18019;-66
2023/10/10 00:56:13;;;;;;;5.00;2.13;;;;;;;14.25;83.32;99982.94;330099;28;17864;-66
2023/10/10 00:56:29;;;;;;;4.47;2.15;;;;;;;14.22;83.60;99983.06;332697;28;17975;-66
2023/10/10 00:56:44;;;;;;;4.43;1.90;;;;;;;14.24;83.33;99977.75;334410;28;18043;-67
2023/10/10 00:56:57;;;;;;;5.43;1.42;;;;;;;14.22;83.03;99987.44;334894;28;12040;-65
2023/10/10 00:57:13;;;;;;;6.00;1.52;;;;;;;14.21;82.99;99981.38;336974;28;4734;-66
2023/10/10 00:57:27;;;;;;;4.03;1.75;;;;;;;14.20;82.88;99984.88;333884;28;17968;-66
2023/10/10 00:57:40;;;;;;;5.03;1.88;;;;;;;14.21;82.97;99983.97;333804;28;18103;-66
2023/10/10 00:57:55;;;;;;;7.22;1.85;;;;;;;14.22;82.88;99977.81;333718;28;18387;-65
2023/10/10 00:58:08;;;;;;;7.10;1.80;;;;;;;14.23;82.57;99978.69;333545;28;17989;-65
2023/10/10 00:58:22;;;;;;;5.60;2.10;;;;;;;14.24;82.51;99978.59;334550;28;12634;-67
2023/10/10 00:58:36;;;;;;;4.00;1.90;;;;;;;14.21;82.36;99983.97;336278;28;5699;-67
2023/10/10 00:58:48;;;;;;;4.20;1.52;;;;;;;14.16;82.42;99983.31;335558;28;18247;-66
2023/10/10 00:59:03;;;;;;;4.13;1.60;;;;;;;14.15;82.53;99981.63;337825;28;4670;-65
2023/10/10 00:59:16;;;;;;;4.80;1.77;;;;;;;14.14;82.48;99975.53;334766;28;18337;-67
2023/10/10 00:59:35;;;;;;;7.15;2.20;;;;;;;14.16;82.47;99988.53;334928;28;17843;-67
2023/10/10 00:59:54;;;;;;;6.28;2.25;;;;;;;14.16;82.31;99983.31;335582;28;17845;-66
2023/10/10 01:00:14;;;;;;;3.50;1.75;;;;;;;14.17;82.22;99979.78;335804;28;17841;-67
2023/10/10 01:00:30;;;;;;;2.55;1.30;;;;;;;14.15;82.82;99979.84;336533;28;17408;-67
2023/10/10 01:00:46;;;;;;;4.18;1.73;;;;;;;14.15;82.71;99984.25;330072;28;17770;-67
2023/10/10 01:00:59;;;;;;;5.18;2.00;;;;;;;14.16;82.72;99983.31;334398;28;17647;-66
2023/10/10 01:01:14;;;;;;;4.30;1.75;;;;;;;14.16;82.55;99983.31;337829;28;5225;-66
2023/10/10 01:01:27;;;;;;;4.60;1.90;;;;;;;14.16;82.31;99983.31;327692;28;17596;-67
2023/10/10 01:01:40;;;;;;;4.30;1.85;;;;;;;14.16;82.25;99978.91;334609;28;17202;-66
2023/10/10 01:01:53;;;;;;;3.97;1.77;;;;;;;14.16;82.18;99984.16;335365;28;12665;-68
2023/10/10 01:02:05;;;;;;;3.88;1.85;;;;;;;14.17;82.18;99979.78;332621;28;5476;-65
2023/10/10 01:02:20;;;;;;;4.10;1.88;;;;;;;14.17;82.11;99983.25;334787;28;18148;-66
2023/10/10 01:02:34;;;;;;;4.00;1.58;;;;;;;14.17;81.97;99979.78;333378;28;18223;-67
2023/10/10 01:03:00;;;;;;;4.07;1.65;;;;;;;14.16;82.17;99975.47;336886;28;5447;-67
2023/10/10 01:03:21;;;;;;;6.18;1.98;;;;;;;14.17;82.11;99980.63;333403;28;18097;-67
2023/10/10 01:03:36;;;;;;;5.63;1.58;;;;;;;14.18;81.98;99978.88;333267;28;17779;-67
2023/10/10 01:03:50;;;;;;;3.65;1.60;;;;;;;14.16;82.04;99981.53;334671;28;17180;-67
2023/10/10 01:04:05;;;;;;;5.10;1.70;;;;;;;14.15;82.28;99976.41;336310;28;4749;-66
2023/10/10 01:04:28;;;;;;;5.60;2.03;;;;;;;14.14;82.36;99979.91;336874;28;17990;-65
2023/10/10 01:05:12;;;;;;;6.97;1.42;;;;;;;14.11;82.44;99978.28;334979;28;17386;-67
2023/10/10 01:05:39;;;;;;;3.15;1.60;;;;;;;14.11;82.52;99983.50;335260;28;17673;-67
2023/10/10 01:05:55;;;;;;;2.50;1.33;;;;;;;14.14;82.26;99972.06;330018;28;16743;-66
2023/10/10 01:06:29;;;;;;;2.40;1.30;;;;;;;14.14;81.88;99978.13;333707;28;18176;-67
2023/10/10 01:06:41;;;;;;;4.63;1.45;;;;;;;14.15;82.10;99981.63;334155;28;16494;-65
2023/10/10 01:06:54;;;;;;;3.95;1.50;;;;;;;14.14;82.10;99977.28;338047;28;4837;-65
2023/10/10 01:07:07;;;;;;;3.63;1.50;;;;;;;14.13;82.03;99973.00;335031;28;18200;-65
2023/10/10 01:07:21;;;;;;;4.03;1.52;;;;;;;14.13;82.41;99973.00;334557;28;16925;-66
2023/10/10 01:07:34;;;;;;;3.45;1.52;;;;;;;14.11;82.59;99974.84;337272;28;4850;-66
2023/10/10 01:07:51;;;;;;;3.30;1.52;;;;;;;14.09;82.83;99974.03;335414;28;16681;-66
2023/10/10 01:08:03;;;;;;;3.13;1.40;;;;;;;14.08;82.69;99974.94;333600;28;19585;-66
2023/10/10 01:08:17;;;;;;;3.15;1.25;;;;;;;14.07;82.33;99976.72;332682;28;5217;-66
2023/10/10 01:08:49;;;;;;;3.17;1.35;;;;;;;14.09;82.27;99971.44;336632;28;5219;-66
2023/10/10 01:09:20;;;;;;;7.05;1.98;;;;;;;14.08;82.29;99974.94;334185;28;18390;-67
2023/10/10 01:09:40;;;;;;;2.72;1.60;;;;;;;14.07;82.47;99975.88;334382;28;17515;-66
2023/10/10 01:10:09;;;;;;;3.20;1.52;;;;;;;14.06;82.42;99974.16;334424;28;17697;-67
2023/10/10 01:10:22;;;;;;;5.85;1.77;;;;;;;14.07;82.18;99971.50;333825;28;17735;-66
2023/10/10 01:10:43;;;;;;;4.72;1.70;;;;;;;14.09;82.34;99976.66;336806;28;4727;-66
2023/10/10 01:11:02;;;;;;;4.10;1.17;;;;;;;14.05;82.23;99975.09;332223;28;17798;-65
2023/10/10 01:11:16;;;;;;;6.85;1.30;;;;;;;14.03;82.59;99971.69;333228;28;18784;-66
2023/10/10 01:11:29;;;;;;;6.05;1.75;;;;;;;14.04;82.44;99968.16;334124;28;17521;-66
2023/10/10 01:11:43;;;;;;;5.03;1.92;;;;;;;14.04;82.40;99968.16;337590;28;4764;-66
2023/10/10 01:11:58;;;;;;;5.38;2.03;;;;;;;14.07;82.22;99970.66;333994;28;17660;-65
2023/10/10 01:12:10;;;;;;;3.90;1.88;;;;;;;14.08;82.16;99974.94;334269;28;18198;-66
2023/10/10 01:12:39;;;;;;;5.05;1.90;;;;;;;14.08;82.13;99977.56;333945;28;16460;-67
2023/10/10 01:12:51;;;;;;;3.30;1.50;;;;;;;14.02;82.54;99965.59;335290;28;17249;-66
2023/10/10 01:13:03;;;;;;;3.65;1.60;;;;;;;13.99;82.64;99963.97;330584;28;5052;-67
2023/10/10 01:13:16;;;;;;;3.20;1.50;;;;;;;13.98;82.63;99975.34;336901;28;4765;-67
2023/10/10 01:13:30;;;;;;;3.97;1.58;;;;;;;13.96;82.48;99966.72;334647;28;17911;-65
2023/10/10 01:13:42;;;;;;;6.25;1.83;;;;;;;13.98;82.22;99969.25;334574;28;11835;-67
2023/10/10 01:13:56;;;;;;;6.07;1.90;;;;;;;13.97;82.16;99968.41;337540;28;4706;-65
2023/10/10 01:14:09;;;;;;;4.60;1.80;;;;;;;13.98;82.16;99964.88;334618;28;17828;-66
2023/10/10 01:14:26;;;;;;;3.05;1.48;;;;;;;13.97;82.67;99963.19;332589;28;4640;-66
2023/10/10 01:14:38;;;;;;;2.72;1.45;;;;;;;13.95;82.68;99961.53;334948;28;17810;-66
2023/10/10 01:14:55;;;;;;;3.10;1.60;;;;;;;13.96;82.50;99964.09;338124;28;4650;-66
2023/10/10 01:15:15;;;;;;;3.08;1.55;;;;;;;13.98;82.44;99969.25;333669;28;19383;-67
2023/10/10 01:15:34;;;;;;;2.55;1.45;;;;;;;13.97;82.37;99962.34;334250;28;17575;-67
2023/10/10 01:15:56;;;;;;;2.97;1.48;;;;;;;13.96;82.17;99966.72;334603;28;16387;-66
2023/10/10 01:16:09;;;;;;;3.05;1.08;;;;;;;13.94;81.94;99962.44;334943;28;17471;-66
2023/10/10 01:16:23;;;;;;;3.78;1.30;;;;;;;13.94;81.97;99958.09;336709;28;4678;-66
2023/10/10 01:16:35;;;;;;;5.15;1.77;;;;;;;13.90;82.12;99964.31;333914;28;17892;-66
2023/10/10 01:16:54;;;;;;;4.80;1.60;;;;;;;13.91;82.09;99966.03;338400;28;5231;-66
2023/10/10 01:17:11;;;;;;;1.85;1.27;;;;;;;13.93;82.20;99968.59;334785;28;17646;-66